createdAt,value
2019-03-18T00:00:59.207Z,2.80
2019-03-18T00:03:28.415Z,2.90
2019-03-18T00:05:57.317Z,2.90
2019-03-18T00:08:26.290Z,2.90
2019-03-18T00:10:55.155Z,2.90
2019-03-18T00:13:24.026Z,2.80
2019-03-18T00:15:52.985Z,2.80
2019-03-18T00:18:21.853Z,2.70
2019-03-18T00:20:50.739Z,2.70
2019-03-18T00:23:19.659Z,2.70
2019-03-18T00:25:48.539Z,2.70
2019-03-18T00:28:17.416Z,2.70
2019-03-18T00:30:46.359Z,2.60
2019-03-18T00:33:15.234Z,2.60
2019-03-18T00:35:44.171Z,2.60
2019-03-18T00:38:13.093Z,2.60
2019-03-18T00:40:41.975Z,2.60
2019-03-18T00:43:10.849Z,2.60
2019-03-18T00:45:40.513Z,2.60
2019-03-18T00:48:09.548Z,2.70
2019-03-18T00:50:38.441Z,2.70
2019-03-18T00:53:07.396Z,2.70
2019-03-18T00:55:36.269Z,2.60
2019-03-18T00:58:05.754Z,2.60
2019-03-18T01:00:34.691Z,2.60
2019-03-18T01:03:03.710Z,2.60
2019-03-18T01:05:32.682Z,2.60
2019-03-18T01:08:01.622Z,2.60
2019-03-18T01:10:30.502Z,2.60
2019-03-18T01:12:59.370Z,2.60
2019-03-18T01:15:28.862Z,2.60
2019-03-18T01:17:57.781Z,2.60
2019-03-18T01:20:26.708Z,2.60
2019-03-18T01:22:55.574Z,2.60
2019-03-18T01:25:39.937Z,2.60
2019-03-18T01:28:08.821Z,2.70
2019-03-18T01:30:40.113Z,2.60
2019-03-18T01:33:09.059Z,2.50
2019-03-18T01:35:39.977Z,2.50
2019-03-18T01:38:08.519Z,2.60
2019-03-18T01:40:37.459Z,2.60
2019-03-18T01:43:06.408Z,2.50
2019-03-18T01:45:40.705Z,2.40
2019-03-18T01:48:05.817Z,2.40
2019-03-18T01:50:34.766Z,2.40
2019-03-18T01:53:03.633Z,2.30
2019-03-18T01:55:32.518Z,2.30
2019-03-18T01:58:01.445Z,2.30
2019-03-18T02:00:30.316Z,2.40
2019-03-18T02:02:59.162Z,2.40
2019-03-18T02:05:28.116Z,2.40
2019-03-18T02:07:57.119Z,2.30
2019-03-18T02:10:25.984Z,2.30
2019-03-18T02:12:54.937Z,2.30
2019-03-18T02:15:23.843Z,2.30
2019-03-18T02:17:52.701Z,2.20
2019-03-18T02:20:21.630Z,2.20
2019-03-18T02:22:50.496Z,2.20
2019-03-18T02:25:19.424Z,2.10
2019-03-18T02:27:48.407Z,2.10
2019-03-18T02:30:20.481Z,2.20
2019-03-18T02:32:49.454Z,2.20
2019-03-18T02:35:18.410Z,2.20
2019-03-18T02:37:47.323Z,2.30
2019-03-18T02:40:16.239Z,2.30
2019-03-18T02:42:45.194Z,2.20
2019-03-18T02:45:14.141Z,2.20
2019-03-18T02:47:42.997Z,2.20
2019-03-18T02:50:11.983Z,2.20
2019-03-18T02:52:40.881Z,2.20
2019-03-18T02:55:10.795Z,2.20
2019-03-18T02:57:39.848Z,2.10
2019-03-18T03:00:13.261Z,2.00
2019-03-18T03:02:42.224Z,1.90
2019-03-18T03:05:13.086Z,1.90
2019-03-18T03:07:42.190Z,1.80
2019-03-18T03:10:15.076Z,1.70
2019-03-18T03:12:45.309Z,1.70
2019-03-18T03:15:14.883Z,1.60
2019-03-18T03:17:44.635Z,1.50
2019-03-18T03:20:15.382Z,1.50
2019-03-18T03:22:44.239Z,1.50
2019-03-18T03:25:13.270Z,1.50
2019-03-18T03:27:42.360Z,1.40
2019-03-18T03:30:15.548Z,1.40
2019-03-18T03:32:44.689Z,1.40
2019-03-18T03:35:14.204Z,1.40
2019-03-18T03:37:44.195Z,1.30
2019-03-18T03:40:13.444Z,1.40
2019-03-18T03:42:42.352Z,1.20
2019-03-18T03:45:13.034Z,1.10
2019-03-18T03:47:41.918Z,0.90
2019-03-18T03:50:12.311Z,0.90
2019-03-18T03:52:41.194Z,0.90
2019-03-18T03:55:11.311Z,1.00
2019-03-18T03:57:40.227Z,1.10
2019-03-18T04:00:15.764Z,1.30
2019-03-18T04:02:44.746Z,1.40
2019-03-18T04:05:13.663Z,1.30
2019-03-18T04:07:42.573Z,1.20
2019-03-18T04:10:15.409Z,1.10
2019-03-18T04:12:44.322Z,1.10
2019-03-18T04:15:14.473Z,1.10
2019-03-18T04:17:43.370Z,1.00
2019-03-18T04:20:17.154Z,1.10
2019-03-18T04:22:46.023Z,1.10
2019-03-18T04:25:15.043Z,1.20
2019-03-18T04:27:44.418Z,1.20
2019-03-18T04:30:14.387Z,1.30
2019-03-18T04:32:43.277Z,1.30
2019-03-18T04:35:12.202Z,1.30
2019-03-18T04:37:41.045Z,1.40
2019-03-18T04:40:11.311Z,1.30
2019-03-18T04:42:40.187Z,1.40
2019-03-18T04:45:10.545Z,1.30
2019-03-18T04:47:39.432Z,1.30
2019-03-18T04:50:10.437Z,1.20
2019-03-18T04:52:39.288Z,1.10
2019-03-18T04:55:09.920Z,1.10
2019-03-18T04:57:39.276Z,1.00
2019-03-18T05:00:13.188Z,0.90
2019-03-18T05:02:42.160Z,0.90
2019-03-18T05:05:11.137Z,0.80
2019-03-18T05:07:40.026Z,0.70
2019-03-18T05:10:10.746Z,0.60
2019-03-18T05:12:39.656Z,0.60
2019-03-18T05:15:10.241Z,0.60
2019-03-18T05:17:39.534Z,0.60
2019-03-18T05:20:10.004Z,0.50
2019-03-18T05:22:38.896Z,0.40
2019-03-18T05:25:11.205Z,0.40
2019-03-18T05:27:40.083Z,0.30
2019-03-18T05:30:11.596Z,0.20
2019-03-18T05:32:40.522Z,0.20
2019-03-18T05:35:09.455Z,0.20
2019-03-18T05:37:38.332Z,0.30
2019-03-18T05:40:08.481Z,0.40
2019-03-18T05:42:38.327Z,0.60
2019-03-18T05:45:11.797Z,0.60
2019-03-18T05:47:40.701Z,0.60
2019-03-18T05:50:11.041Z,0.60
2019-03-18T05:52:40.064Z,0.50
2019-03-18T05:55:10.389Z,0.40
2019-03-18T05:57:59.445Z,0.30
2019-03-18T06:00:33.034Z,0.30
2019-03-18T06:03:12.726Z,0.30
2019-03-18T06:05:43.148Z,0.40
2019-03-18T06:08:36.863Z,0.40
2019-03-18T06:11:05.903Z,0.40
2019-03-18T06:13:37.846Z,0.40
2019-03-18T06:16:06.687Z,0.40
2019-03-18T06:19:20.993Z,0.40
2019-03-18T06:21:48.834Z,0.40
2019-03-18T06:24:17.876Z,0.40
2019-03-18T06:26:46.781Z,0.40
2019-03-18T06:29:19.638Z,0.50
2019-03-18T06:32:03.786Z,0.50
2019-03-18T06:34:44.240Z,0.40
2019-03-18T06:37:17.435Z,0.40
2019-03-18T06:39:46.895Z,0.40
2019-03-18T06:42:20.694Z,0.40
2019-03-18T06:45:10.807Z,0.40
2019-03-18T06:50:29.383Z,0.70
2019-03-18T06:53:21.774Z,0.80
2019-03-18T06:56:02.045Z,0.80
2019-03-18T06:58:30.905Z,0.80
2019-03-18T07:00:59.859Z,0.90
2019-03-18T07:03:29.301Z,0.90
2019-03-18T07:05:58.616Z,0.90
2019-03-18T07:08:29.527Z,0.90
2019-03-18T07:10:58.420Z,1.00
2019-03-18T07:13:38.484Z,1.10
2019-03-18T07:16:15.877Z,1.10
2019-03-18T07:18:56.531Z,1.20
2019-03-18T07:21:29.590Z,1.30
2019-03-18T07:27:03.457Z,1.40
2019-03-18T07:29:42.897Z,1.40
2019-03-18T07:35:28.737Z,1.50
2019-03-18T07:38:16.591Z,1.60
2019-03-18T07:40:45.776Z,1.60
2019-03-18T07:43:14.945Z,1.70
2019-03-18T07:45:43.855Z,1.80
2019-03-18T07:51:18.953Z,1.90
2019-03-18T07:53:51.244Z,2.00
2019-03-18T07:56:20.146Z,2.00
2019-03-18T07:58:49.112Z,2.10
2019-03-18T08:01:19.747Z,2.20
2019-03-18T08:03:49.054Z,2.20
2019-03-18T08:06:17.995Z,2.30
2019-03-18T08:08:46.882Z,2.30
2019-03-18T08:11:15.744Z,2.40
2019-03-18T08:13:44.720Z,2.50
2019-03-18T08:16:13.626Z,2.60
2019-03-18T08:18:43.515Z,2.60
2019-03-18T08:21:12.759Z,2.70
2019-03-18T08:23:41.648Z,2.80
2019-03-18T08:26:10.574Z,2.90
2019-03-18T08:28:39.536Z,2.90
2019-03-18T08:31:08.389Z,3.00
2019-03-18T08:33:37.329Z,3.10
2019-03-18T08:36:06.272Z,3.10
2019-03-18T08:38:35.164Z,3.10
2019-03-18T08:41:04.039Z,3.20
2019-03-18T08:43:32.941Z,3.30
2019-03-18T08:46:02.957Z,3.40
2019-03-18T08:48:31.825Z,3.50
2019-03-18T08:51:00.760Z,3.60
2019-03-18T08:53:29.679Z,3.60
2019-03-18T08:55:58.523Z,3.70
2019-03-18T08:58:27.532Z,3.80
2019-03-18T09:00:56.434Z,3.90
2019-03-18T09:03:25.346Z,4.10
2019-03-18T09:05:54.223Z,4.10
2019-03-18T09:08:23.110Z,4.00
2019-03-18T09:10:52.050Z,4.10
2019-03-18T09:13:20.957Z,4.10
2019-03-18T09:15:49.820Z,4.20
2019-03-18T09:20:57.460Z,4.20
2019-03-18T09:23:26.327Z,4.20
2019-03-18T09:25:55.701Z,4.30
2019-03-18T09:28:24.637Z,4.30
2019-03-18T09:30:55.471Z,4.30
2019-03-18T09:33:24.356Z,4.40
2019-03-18T09:35:54.124Z,4.50
2019-03-18T09:38:23.065Z,4.50
2019-03-18T09:41:05.589Z,4.60
2019-03-18T09:43:32.932Z,4.70
2019-03-18T09:46:01.834Z,4.70
2019-03-18T09:48:30.773Z,4.70
2019-03-18T09:50:59.847Z,4.70
2019-03-18T09:53:28.749Z,4.70
2019-03-18T09:56:09.390Z,4.70
2019-03-18T09:58:47.830Z,4.80
2019-03-18T10:01:30.110Z,4.90
2019-03-18T10:04:09.829Z,5.00
2019-03-18T10:07:05.628Z,5.30
2019-03-18T10:09:34.641Z,5.30
2019-03-18T10:12:03.512Z,5.30
2019-03-18T10:14:34.573Z,5.40
2019-03-18T10:17:09.534Z,5.50
2019-03-18T10:19:34.004Z,5.50
2019-03-18T10:22:03.230Z,5.60
2019-03-18T10:24:32.130Z,5.80
2019-03-18T10:27:01.521Z,5.90
2019-03-18T10:29:30.765Z,5.90
2019-03-18T10:31:59.671Z,5.90
2019-03-18T10:34:28.554Z,5.90
2019-03-18T10:36:57.445Z,5.80
2019-03-18T10:39:26.421Z,5.80
2019-03-18T10:41:56.195Z,5.80
2019-03-18T10:44:25.322Z,5.90
2019-03-18T10:46:54.453Z,6.10
2019-03-18T10:49:23.326Z,6.30
2019-03-18T10:51:52.210Z,6.30
2019-03-18T10:54:30.406Z,6.50
2019-03-18T10:56:51.750Z,6.60
2019-03-18T10:59:20.699Z,6.60
2019-03-18T11:01:49.527Z,6.50
2019-03-18T11:04:18.439Z,6.60
2019-03-18T11:06:47.313Z,6.60
2019-03-18T11:09:16.533Z,6.70
2019-03-18T11:11:45.440Z,6.70
2019-03-18T11:14:14.301Z,6.60
2019-03-18T11:16:43.236Z,6.70
2019-03-18T11:19:16.266Z,6.90
2019-03-18T11:21:45.158Z,6.80
2019-03-18T11:24:14.562Z,6.80
2019-03-18T11:26:43.962Z,6.80
2019-03-18T11:29:12.909Z,7.10
2019-03-18T11:31:43.980Z,7.20
2019-03-18T11:34:12.874Z,7.40
2019-03-18T11:36:41.953Z,7.50
2019-03-18T11:39:11.040Z,7.50
2019-03-18T11:41:40.270Z,7.50
2019-03-18T11:44:09.149Z,7.50
2019-03-18T11:46:40.589Z,7.50
2019-03-18T11:49:09.130Z,7.40
2019-03-18T11:51:38.009Z,7.60
2019-03-18T11:54:06.991Z,7.60
2019-03-18T11:56:35.822Z,7.70
2019-03-18T11:59:04.744Z,7.70
2019-03-18T12:01:33.677Z,7.90
2019-03-18T12:04:02.643Z,8.10
2019-03-18T12:06:31.589Z,8.10
2019-03-18T12:09:00.505Z,8.10
2019-03-18T12:11:29.352Z,8.20
2019-03-18T12:13:58.961Z,8.20
2019-03-18T12:16:27.844Z,8.20
2019-03-18T12:18:56.819Z,8.40
2019-03-18T12:21:25.752Z,8.60
2019-03-18T12:23:55.066Z,8.70
2019-03-18T12:26:23.948Z,9.00
2019-03-18T12:28:52.942Z,9.10
2019-03-18T12:31:22.039Z,9.10
2019-03-18T12:33:50.870Z,8.90
2019-03-18T12:36:19.783Z,8.90
2019-03-18T12:38:48.656Z,8.90
2019-03-18T12:41:17.517Z,9.00
2019-03-18T12:43:46.456Z,8.90
2019-03-18T12:46:15.339Z,8.80
2019-03-18T12:48:44.224Z,8.70
2019-03-18T12:51:13.998Z,8.80
2019-03-18T12:53:42.898Z,8.70
2019-03-18T12:56:11.795Z,8.90
2019-03-18T12:58:40.824Z,9.20
2019-03-18T13:01:12.978Z,9.30
